Seaside, CA

12:51 PM PDT on August 29, 2014 (GMT -0700)
KCAMONTE12 | Change Station
CLOSE
Current Station
Personal Weather Station
Location: Monterey, CA
Elevation: 292 ft
Nearby Weather Stations

Elev 292 ft 36.56 °N, 121.79 °W | Updated 5 seconds ago

Partly Cloudy
Partly Cloudy
80.1 °F
Feels Like 80 °F
N
0.0
Wind Variable Wind from WNW
Gusts 0.0 mph

Today
High -- | Low -- °F
--% Chance of Precip.
Yesterday
High -- | Low -- °F
Precip. -- in
6:36 AM 7:39 PM
Waxing Crescent, 16% visible
Pressure 29.98 in
Visibility 8.0 miles
Clouds Few 1000 ft
Heat Index 80 °F
Dew Point 50 °F
Humidity 35%
Rainfall 0.00 in
Snow Depth Not available.
UV 1.0 out of 12
Pollen 7.40 out of 12
Air Quality Not available.
Flu Activity Not available.
METAR KMRY 291854Z VRB06KT 8SM FEW010 18/14 A2994 RMK AO2 SLP150 T01830139

More Conditions Fewer Conditions

Pressure 29.98 in
Visibility 8.0 miles
Clouds Few 1000 ft
Heat Index 80 °F
Dew Point 50 °F
Humidity 35%
Rainfall 0.00 in
Snow Depth Not available.
UV 1.0 out of 12
Pollen 7.40 out of 12
Air Quality Not available.
Flu Activity Not available.
METAR KMRY 291854Z VRB06KT 8SM FEW010 18/14 A2994 RMK AO2 SLP150 T01830139

More Conditions Fewer Conditions

10-Day Weather Forecast

Almanac

Astronomy

Aug. 29, 2014 Rise Set
Actual Time 6:36 AM PDT 7:39 PM PDT
Civil Twilight 6:09 AM PDT 8:06 PM PDT
Nautical Twilight 5:38 AM PDT 8:37 PM PDT
Astronomical Twilight 5:05 AM PDT 9:10 PM PDT
Moon 10:23 AM PDT 9:48 PM PDT
Length of Visible Light 13h 56m
Length of Day
13h 03m
Tomorrow will be 2m 12s shorter.
Waxing Crescent, 16% of the Moon is Illuminated
Today
Waxing Crescent
Sep 2
First Quarter
Sep 8
Full
Sep 15
Last Quarter
Sep 24
New

Today's Extremes

State Highs State Lows

Community

WunderPhotos

Upload Photos

1,748,325 photos uploaded!

WunderBlogs® & News

By Dr. Jeff Masters
Director of Meteorology, Weather Underground
By Kari Strenfel
Meteorologist, Weather Underground
By Christopher C. Burt
Weather Historian, Weather Underground
August 29, 2014
August 29, 2014
August 29, 2014

Nearby

Snow Depth

Station Depth Elevation
Summit Meadow 0 in 9122 ft
Rubicon #2 0 in 7500 ft
CSS Lab 0 in 6900 ft
Adin Mountain 0 in 6200 ft
Cedar Pass 0 in 7100 ft

Earthquake Activity

City Distance Mag. Time & Date
Napa, California 116 miles 2.6 11:57 AM PDT
2014-08-27
Minimum magnitude displayed is 2.5.

Coastal Water Temperatures

Place Temperature
Monterey, CA 64.9 °F
Redwood City, CA 73.0 °F

Nearby Weather Stations